Pagrindinis puslapis
METAR-TAF:

METAR-TAF

Oro uostai :

Hafar Al-Batin, Saudo Arabija

platuma: 27-54N, ilguma: 045-32E, Aukštis: 413 m

METAR: trūkstamas

Laikas: 00:08 (21:08 UTC)

Prognozė

Ataskaita buvo paskelbta 16 valandos ir 8 minutes, ne 05:00 UTC
Prognozė galioja nuo 17 metu 06 UTC su 17 metu 20 UTC
Vėjas 15 kt iš Šiaurės su gūsio iki 25 kt
Matomumas: 7000 m
Laikinai
nuo 17 metu 06 UTC su 17 metu 18 UTC
Matomumas: 3000 m
Dulkes pustymas
Tikimybė 30% :
Laikinai
nuo 17 metu 09 UTC su 17 metu 16 UTC
Matomumas: 1000 m
Tapsmas
nuo 17 metu 18 UTC su 17 metu 20 UTC
Vėjas 6 kt iš Šiaurės/Šiaurės Vakarų

TAF: OEKK 170500Z 1706/1720 35015G25KT 7000 NSC TEMPO 1706/1718 3000 BLDU PROB30 TEMPO 1709/1716 1000 BECMG 1718/1720 33006KT

Orai ataskaitas ir orų prognozės (METAR, TAF).

turimą stotys yra geltonos ir raudonos taškus žemėlapyje.

Perkelti pele per norėdami pamatyti stoties vardą.

Tada spustelėkite, norėdami matyti oro stebėjimo ir prognozės.

Norėdami pakeisti žemėlapį: spustelėkite ant žalios mygtukų su juodo kryžiaus žemyn,; žalią mygtuką su brūkšneliu, jei norite nutolinti; arba žalių rodyklių gretimoms žemėlapius.


METAR-TAF: